Flugplatz Schmoldow

EDBY · Meclemburgo-Pomerania Anteriore, Germania

Storia di METAR EDBY · Flugplatz Schmoldow

Di seguito sono riportati i METAR degli ultimi giorni. Seleziona un anno per sfogliare i METAR più vecchi, dall'anno 2007 in poi.

15 luglio 2024

Tempo Codice Tempo meteorologico Temp. Vista Base nuvolosa Vento METAR/SPECI
12:50
V
26 °C 10 km+ - Var Var 3 kt METAR EDAH 151050Z VRB03KT CAVOK 26/14 Q1013
12:20
V
25 °C 10 km+ - 190° 190° 5 kt METAR EDAH 151020Z 19005KT 150V230 CAVOK 25/14 Q1013
11:50
V
25 °C 10 km+ - 210° 210° 4 kt METAR EDAH 150950Z 21004KT 150V280 CAVOK 25/14 Q1013
11:20
V
23 °C 10 km+ - 230° 230° 4 kt METAR EDAH 150920Z 23004KT 150V280 CAVOK 23/14 Q1013
10:50
V
23 °C 10 km+ - 180° 180° 5 kt METAR EDAH 150850Z 18005KT 150V210 CAVOK 23/15 Q1013
10:20
V
22 °C 10 km+ - 180° 180° 5 kt METAR EDAH 150820Z 18005KT 150V220 CAVOK 22/15 Q1013
09:50
V
22 °C 10 km+ - 190° 190° 4 kt METAR EDAH 150750Z 19004KT 150V230 CAVOK 22/16 Q1013
09:20
V
21 °C 10 km+ - 170° 170° 5 kt METAR EDAH 150720Z 17005KT CAVOK 21/15 Q1013
08:50
V
20 °C 10 km+ - 170° 170° 6 kt METAR EDAH 150650Z 17006KT CAVOK 20/16 Q1013
08:20
V
20 °C 10 km+ - 150° 150° 6 kt METAR EDAH 150620Z AUTO 15006KT 110V180 9999 // NCD 20/16 Q1013
07:50
V
20 °C 10 km+ - 150° 150° 5 kt METAR EDAH 150550Z AUTO 15005KT 9999 // NCD 20/15 Q1013
07:20
V
20 °C 10 km+ - 110° 110° 5 kt METAR EDAH 150520Z AUTO 11005KT 9999 // NCD 20/15 Q1013
06:50
V
19 °C 10 km+ - 150° 150° 4 kt METAR EDAH 150450Z AUTO 15004KT 110V180 9999 // NCD 19/15 Q1013
06:20
V
19 °C 10 km+ - 150° 150° 6 kt METAR EDAH 150420Z AUTO 15006KT 9999 // FEW067/// 19/15 Q1014
05:50
V
17 °C 10 km+ 8.500 ft 130° 130° 4 kt METAR EDAH 150350Z AUTO 13004KT 9999 // FEW071/// BKN085/// 17/14 Q1014
05:20
V
16 °C 10 km+ 9.700 ft 110° 110° 5 kt METAR EDAH 150320Z AUTO 11005KT 9999 // BKN097/// 16/15 Q1014
04:50
V
17 °C 10 km+ - Var Var 2 kt METAR EDAH 150250Z AUTO VRB02KT 9999 // FEW086/// 17/14 Q1013
04:20
V
17 °C 10 km+ - 150° 150° 5 kt METAR EDAH 150220Z AUTO 15005KT 9999 // SCT100/// 17/14 Q1013
03:50
V
18 °C 10 km+ 10.000 ft 160° 160° 5 kt METAR EDAH 150150Z AUTO 16005KT 9999 // FEW087/// OVC100/// 18/14 Q1013
03:20
V
18 °C 10 km+ 9.000 ft 170° 170° 6 kt METAR EDAH 150120Z AUTO 17006KT 9999 // BKN090/// 18/14 Q1013
02:50
V
17 °C 10 km+ - 160° 160° 5 kt METAR EDAH 150050Z AUTO 16005KT 9999 // FEW230/// 17/14 Q1014
02:20
V
18 °C 10 km+ - 170° 170° 4 kt METAR EDAH 150020Z AUTO 17004KT 9999 // SCT240/// 18/12 Q1013
01:50
V
18 °C 10 km+ 24.000 ft 180° 180° 4 kt METAR EDAH 142350Z AUTO 18004KT 9999 // BKN240/// 18/13 Q1013
01:20
V
18 °C 10 km+ 24.000 ft 190° 190° 3 kt METAR EDAH 142320Z AUTO 19003KT 160V220 9999 // BKN240/// 18/13 Q1013
00:50
V
18 °C 10 km+ - 190° 190° 5 kt METAR EDAH 142250Z AUTO 19005KT 9999 // SCT240/// 18/14 Q1013
00:20
V
15 °C 10 km+ - 100° 100° 3 kt METAR EDAH 142220Z AUTO 10003KT 9999 // SCT240/// 15/14 Q1013

14 luglio 2024

Tempo Codice Tempo meteorologico Temp. Vista Base nuvolosa Vento METAR/SPECI
23:50
V
16 °C 10 km+ - 050° 050° 2 kt METAR EDAH 142150Z AUTO 05002KT 9999 // NCD 16/14 Q1013
23:20
V
16 °C 10 km+ - Var Var 3 kt METAR EDAH 142120Z AUTO VRB03KT 9999 // FEW098/// 16/15 Q1013
22:50
V
17 °C 10 km+ - 100° 100° 4 kt METAR EDAH 142050Z AUTO 10004KT 9999 // FEW110/// 17/14 Q1013
22:20
V
17 °C 10 km+ - 090° 090° 5 kt METAR EDAH 142020Z AUTO 09005KT 9999 // FEW110/// 17/14 Q1013
21:50
V
18 °C 10 km+ - 090° 090° 4 kt METAR EDAH 141950Z AUTO 09004KT 070V130 9999 // FEW100/// 18/15 Q1013
21:20
V
19 °C 10 km+ - 140° 140° 3 kt METAR EDAH 141920Z AUTO 14003KT 9999 // FEW130/// 19/15 Q1013
20:50
V
21 °C 10 km+ - 170° 170° 4 kt METAR EDAH 141850Z AUTO 17004KT 130V200 9999 // FEW140/// 21/15 Q1013
20:20
V
21 °C 10 km+ - 160° 160° 5 kt METAR EDAH 141820Z AUTO 16005KT 100V200 9999 // NCD 21/13 Q1013
19:50
V
21 °C 10 km+ - 170° 170° 3 kt METAR EDAH 141750Z AUTO 17003KT 120V200 9999 // FEW097/// 21/13 Q1013
19:20
V
21 °C 10 km+ - 150° 150° 5 kt METAR EDAH 141720Z AUTO 15005KT 110V190 9999 // FEW070/// 21/13 Q1013
18:50
V
21 °C 10 km+ - 150° 150° 10 kt METAR EDAH 141650Z 15010KT CAVOK 21/12 Q1012
18:20
V
23 °C 10 km+ - 230° 230° 5 kt METAR EDAH 141620Z 23005KT CAVOK 23/12 Q1012
17:50
V
23 °C 10 km+ - 230° 230° 5 kt METAR EDAH 141550Z 23005KT 200V260 CAVOK 23/11 Q1012
17:20
V
24 °C 10 km+ - 240° 240° 5 kt METAR EDAH 141520Z 24005KT 210V280 CAVOK 24/10 Q1013
16:50
V
24 °C 10 km+ - 240° 240° 5 kt METAR EDAH 141450Z 24005KT 200V270 CAVOK 24/12 Q1013
16:20
V
24 °C 10 km+ - 230° 230° 7 kt METAR EDAH 141420Z 23007KT 200V260 CAVOK 24/12 Q1013
15:50
V
24 °C 10 km+ - 220° 220° 7 kt METAR EDAH 141350Z 22007KT 190V250 CAVOK 24/11 Q1013
15:20
V
22 °C 10 km+ - 210° 210° 9 kt METAR EDAH 141320Z 21009KT CAVOK 22/11 Q1013
14:50
V
24 °C 10 km+ - 240° 240° 6 kt METAR EDAH 141250Z 24006KT 210V270 CAVOK 24/11 Q1013
14:20
V
23 °C 10 km+ - 230° 230° 9 kt METAR EDAH 141220Z 23009KT 190V260 CAVOK 23/10 Q1013
13:50
V
23 °C 10 km+ - 240° 240° 9 kt METAR EDAH 141150Z 24009KT 220V280 CAVOK 23/10 Q1013
13:20
V
23 °C 10 km+ - 140° 140° 7 kt METAR EDAH 141120Z 14007KT 110V200 CAVOK 23/12 Q1013
12:50
V
22 °C 10 km+ - 150° 150° 6 kt METAR EDAH 141050Z 15006KT 120V180 CAVOK 22/13 Q1013
12:20
V
22 °C 10 km+ - 170° 170° 8 kt METAR EDAH 141020Z 17008KT CAVOK 22/13 Q1013
11:50
V
22 °C 10 km+ - 190° 190° 7 kt METAR EDAH 140950Z 19007KT 160V240 CAVOK 22/13 Q1013
11:20
V
21 °C 10 km+ - 160° 160° 7 kt METAR EDAH 140920Z 16007KT CAVOK 21/13 Q1013
10:50
V
20 °C 10 km+ - 190° 190° 6 kt METAR EDAH 140850Z 19006KT 150V210 CAVOK 20/12 Q1013
10:20
V
19 °C 10 km+ - 180° 180° 6 kt METAR EDAH 140820Z 18006KT 140V210 CAVOK 19/12 Q1014
09:50
V
19 °C 10 km+ - 210° 210° 5 kt METAR EDAH 140750Z 21005KT 170V280 CAVOK 19/13 Q1014
09:20
V
18 °C 10 km+ - 220° 220° 6 kt METAR EDAH 140720Z 22006KT CAVOK 18/13 Q1014
08:50
V
18 °C 10 km+ - 220° 220° 7 kt METAR EDAH 140650Z 22007KT CAVOK 18/13 Q1014
08:20
V
17 °C 10 km+ - 240° 240° 7 kt METAR EDAH 140620Z AUTO 24007KT 9999 // NCD 17/12 Q1013
07:50
V
17 °C 10 km+ - 240° 240° 6 kt METAR EDAH 140550Z AUTO 24006KT 210V280 9999 // NCD 17/12 Q1013
07:20
V
17 °C 10 km+ - 240° 240° 6 kt METAR EDAH 140520Z AUTO 24006KT 9999 // NCD 17/13 Q1013
06:50
V
17 °C 10 km+ - 230° 230° 6 kt METAR EDAH 140450Z AUTO 23006KT 9999 // NCD 17/13 Q1013
06:20
V
16 °C 10 km+ - 240° 240° 5 kt METAR EDAH 140420Z AUTO 24005KT 9999 // NCD 16/13 Q1013
05:50
V
16 °C 10 km+ - 250° 250° 7 kt METAR EDAH 140350Z AUTO 25007KT 9999 // NCD 16/12 Q1013
05:20
V
16 °C 10 km+ - 250° 250° 7 kt METAR EDAH 140320Z AUTO 25007KT 9999 // NCD 16/12 Q1012
04:50
V
17 °C 10 km+ - 230° 230° 8 kt METAR EDAH 140250Z AUTO 23008KT 9999 // NCD 17/12 Q1013
04:20
V
17 °C 10 km+ - 230° 230° 8 kt METAR EDAH 140220Z AUTO 23008KT 9999 // FEW250/// 17/13 Q1013
03:50
V
17 °C 10 km+ - 240° 240° 7 kt METAR EDAH 140150Z AUTO 24007KT 9999 // FEW250/// 17/13 Q1012
03:20
V
17 °C 10 km+ - 230° 230° 8 kt METAR EDAH 140120Z AUTO 23008KT 9999 // NCD 17/13 Q1013
02:50
V
17 °C 10 km+ - 230° 230° 7 kt METAR EDAH 140050Z AUTO 23007KT 9999 // NCD 17/13 Q1013
02:20
V
17 °C 10 km+ - 220° 220° 9 kt METAR EDAH 140020Z AUTO 22009KT 9999 // NCD 17/13 Q1013
01:50
V
17 °C 10 km+ - 220° 220° 8 kt METAR EDAH 132350Z AUTO 22008KT 9999 // NCD 17/13 Q1013
01:20
V
17 °C 10 km+ - 230° 230° 7 kt METAR EDAH 132320Z AUTO 23007KT 9999 // NCD 17/13 Q1012
00:50
V
17 °C 10 km+ - 240° 240° 7 kt METAR EDAH 132250Z AUTO 24007KT 9999 // NCD 17/13 Q1012
00:20
V
16 °C 10 km+ - 260° 260° 6 kt METAR EDAH 132220Z AUTO 26006KT 9999 // NCD 16/12 Q1012

13 luglio 2024

Tempo Codice Tempo meteorologico Temp. Vista Base nuvolosa Vento METAR/SPECI
23:50
V
18 °C 10 km+ - 250° 250° 8 kt METAR EDAH 132150Z AUTO 25008KT 9999 // NCD 18/12 Q1012
23:20
V
18 °C 10 km+ - 250° 250° 9 kt METAR EDAH 132120Z AUTO 25009KT 9999 // NCD 18/12 Q1012
22:50
V
17 °C 10 km+ - 250° 250° 7 kt METAR EDAH 132050Z AUTO 25007KT 9999 // NCD 17/12 Q1012
22:20
V
18 °C 10 km+ - 240° 240° 8 kt METAR EDAH 132020Z AUTO 24008KT 9999 // NCD 18/12 Q1012
21:50
V
18 °C 10 km+ - 240° 240° 8 kt METAR EDAH 131950Z AUTO 24008KT 9999 // NCD 18/12 Q1012
21:20
V
18 °C 10 km+ - 240° 240° 8 kt METAR EDAH 131920Z AUTO 24008KT 9999 // NCD 18/12 Q1012
20:50
V
19 °C 10 km+ - 240° 240° 9 kt METAR EDAH 131850Z AUTO 24009KT 9999 // FEW067/// 19/12 Q1012
20:20
V
19 °C 10 km+ - 250° 250° 9 kt METAR EDAH 131820Z AUTO 25009KT 9999 // SCT067/// 19/12 Q1011
19:50
V
19 °C 10 km+ 6.100 ft 270° 270° 8 kt METAR EDAH 131750Z AUTO 27008KT 9999 // FEW038/// BKN061/// 19/12 Q1011
19:20
V
19 °C 10 km+ 6.300 ft 250° 250° 9 kt METAR EDAH 131720Z AUTO 25009KT 9999 // FEW038/// OVC063/// 19/12 Q1011
18:50
V
20 °C 10 km+ - 250° 250° 10 kt METAR EDAH 131650Z 25010KT 9999 SCT037 20/12 Q1011
18:20
V
20 °C 10 km+ - 240° 240° 8 kt METAR EDAH 131620Z 24008KT 9999 FEW041 20/12 Q1011
17:50
V
20 °C 10 km+ - 230° 230° 7 kt METAR EDAH 131550Z 23007KT 9999 FEW039 20/12 Q1011
17:20
V
20 °C 10 km+ - 240° 240° 11 kt METAR EDAH 131520Z 24011KT CAVOK 20/12 Q1011
16:50
V
21 °C 10 km+ 4.800 ft 250° 250° 9 kt METAR EDAH 131450Z 25009KT 9999 BKN048 21/13 Q1011
16:20
V
19 °C 10 km+ 4.800 ft 240° 240° 11 kt METAR EDAH 131420Z 24011KT 9999 FEW029 SCT034 OVC048 19/12 Q1011
15:50
V
19 °C 10 km+ 4.400 ft 250° 250° 11 kt METAR EDAH 131350Z 25011KT 9999 FEW031 OVC044 19/13 Q1011
15:20
V
20 °C 10 km+ 4.500 ft 240° 240° 12 kt METAR EDAH 131320Z 24012KT 9999 SCT025 OVC045 20/13 Q1011
14:50
M
19 °C 10 km+ 2.800 ft 300° 300° 4 kt METAR EDAH 131250Z 30004KT 230V360 9999 SCT024 OVC028 19/13 Q1010
14:20
M
18 °C 10 km+ 2.600 ft 270° 270° 11 kt METAR EDAH 131220Z 27011KT 9999 SCT021 OVC026 18/13 Q1010
13:50
M
17 °C 10 km+ 2.200 ft 270° 270° 12 kt METAR EDAH 131150Z 27012KT 9999 SCT017 OVC022 17/13 Q1010
13:20
M
17 °C 10 km+ 1.700 ft 270° 270° 14 kt METAR EDAH 131120Z 27014KT 9999 OVC017 17/13 Q1010
12:50
M
17 °C 10 km+ 1.500 ft 260° 260° 12 kt METAR EDAH 131050Z 26012KT 9999 OVC015 17/13 Q1010
12:20
M
17 °C 10 km+ 1.500 ft 270° 270° 13 kt METAR EDAH 131020Z 27013KT 9999 OVC015 17/14 Q1009
11:50
M
16 °C 10 km+ 1.500 ft 260° 260° 14 kt METAR EDAH 130950Z 26014KT 9999 OVC015 16/13 Q1009
11:20
M
16 °C 10 km+ 1.500 ft 260° 260° 11 kt METAR EDAH 130920Z 26011KT 9999 BKN015 OVC023 16/14 Q1009
10:50
M
17 °C 10 km+ 1.600 ft 280° 280° 13 kt METAR EDAH 130850Z 28013KT 9999 BKN016 OVC020 17/14 Q1009
10:20
M
17 °C 10 km+ 1.800 ft 270° 270° 14 kt METAR EDAH 130820Z 27014KT 9999 OVC018 17/13 Q1008
09:50
M
17 °C 10 km+ 1.900 ft 270° 270° 14 kt METAR EDAH 130750Z 27014KT 9999 SCT013 OVC019 17/14 Q1008
09:20
M
16 °C 10 km+ 1.100 ft 260° 260° 17 kt METAR EDAH 130720Z 26017KT 9999 OVC011 16/14 Q1009
08:50
M
18 °C 10 km+ 1.100 ft 280° 280° 12 kt METAR EDAH 130650Z 28012KT 9999 BKN011 OVC016 18/15 Q1008
08:20
M
18 °C 10 km+ 1.200 ft 280° 280° 12 kt METAR EDAH 130620Z AUTO 28012KT 9999 // OVC012/// 18/16 Q1008
07:50
M
18 °C 10 km+ 1.800 ft 280° 280° 10 kt METAR EDAH 130550Z AUTO 28010KT 9999 // FEW011/// OVC018/// 18/16 Q1007
Segnala modifiche